Time;durP1;ratioP1;P1;durP2;ratioP2;P2;SDS_P1;SDS_P2;PMS_P1;PMS_P2;Temp;Humidity;BMP_temperature;BMP_pressure;BME280_temperature;BME280_humidity;BME280_pressure;Samples;Min_cycle;Max_cycle;Signal;HPM_P1;HPM_P2
2023/04/20 00:02:08;;;;;;;;;11.00;11.00;;;;;18.21;40.77;101187.28;5060167;28;45436;-76
2023/04/20 00:04:36;;;;;;;;;17.67;15.00;;;;;18.23;40.84;101185.22;5079618;28;45275;-75
2023/04/20 00:07:01;;;;;;;;;14.33;14.33;;;;;18.27;41.19;101183.75;5079283;28;45490;-76
2023/04/20 00:09:27;;;;;;;;;13.00;13.00;;;;;18.27;40.79;101173.00;5060711;28;46316;-75
2023/04/20 00:11:55;;;;;;;;;16.67;16.00;;;;;18.10;40.70;101160.03;5056296;28;45265;-75
2023/04/20 00:14:21;;;;;;;;;13.33;13.33;;;;;18.15;40.47;101170.16;5057120;28;45413;-76
2023/04/20 00:16:47;;;;;;;;;12.33;11.33;;;;;18.20;40.95;101172.19;5040293;28;45917;-76
2023/04/20 00:19:13;;;;;;;;;11.67;11.67;;;;;18.14;40.80;101160.44;5040651;28;47310;-75
2023/04/20 00:21:38;;;;;;;;;13.67;13.00;;;;;18.04;40.76;101158.16;5058669;28;45304;-75
2023/04/20 00:24:04;;;;;;;;;15.67;15.67;;;;;18.05;40.82;101167.91;5058846;28;45233;-75
2023/04/20 00:26:29;;;;;;;;;12.67;12.67;;;;;17.94;41.05;101155.94;5060416;28;45500;-75
2023/04/20 00:28:55;;;;;;;;;13.00;13.00;;;;;17.90;40.65;101150.16;5048810;28;47011;-76
2023/04/20 00:31:20;;;;;;;;;15.00;14.67;;;;;17.88;41.04;101144.19;5082280;28;45253;-75
2023/04/20 00:33:49;;;;;;;;;13.33;11.33;;;;;17.95;41.06;101154.06;5064044;28;45342;-75
2023/04/20 00:36:14;;;;;;;;;12.33;12.33;;;;;17.78;40.65;101141.13;5082503;28;45248;-76
2023/04/20 00:38:40;;;;;;;;;12.00;12.00;;;;;17.89;40.68;101150.38;5082451;28;46012;-75
2023/04/20 00:41:05;;;;;;;;;14.33;13.33;;;;;17.89;41.07;101147.69;5082432;28;45364;-76
2023/04/20 00:43:31;;;;;;;;;12.00;12.00;;;;;17.87;40.87;101139.84;5064369;28;45865;-75
2023/04/20 00:45:59;;;;;;;;;13.33;11.33;;;;;17.89;40.85;101145.00;5063424;28;46220;-75
2023/04/20 00:48:25;;;;;;;;;10.67;10.33;;;;;17.74;41.25;101121.06;5064012;28;48492;-76
2023/04/20 00:50:51;;;;;;;;;13.33;12.33;;;;;17.82;40.99;101120.84;5063951;28;45305;-76
2023/04/20 00:53:18;;;;;;;;;15.33;13.00;;;;;17.74;41.29;101123.75;5064091;28;45300;-76
2023/04/20 00:55:44;;;;;;;;;13.00;13.00;;;;;17.70;41.14;101119.84;5063963;28;45765;-75
2023/04/20 00:58:10;;;;;;;;;14.00;13.00;;;;;17.77;41.72;101136.78;5081998;28;45275;-75
2023/04/20 01:00:36;;;;;;;;;13.33;11.33;;;;;17.70;41.75;101114.47;5082095;28;45543;-76
2023/04/20 01:03:04;;;;;;;;;14.33;13.00;;;;;17.67;41.11;101123.78;5082265;28;45307;-75
2023/04/20 01:05:30;;;;;;;;;9.33;9.33;;;;;17.72;41.30;101128.53;5063701;28;46826;-75
2023/04/20 01:07:56;;;;;;;;;13.67;12.67;;;;;17.66;40.87;101116.78;5063507;28;46517;-76
2023/04/20 01:10:21;;;;;;;;;14.00;13.00;;;;;17.53;40.77;101099.66;5081947;28;45213;-75
2023/04/20 01:12:47;;;;;;;;;13.00;12.33;;;;;17.61;40.74;101119.25;5082091;28;45220;-75
2023/04/20 01:15:12;;;;;;;;;10.33;10.00;;;;;17.57;41.70;101120.72;5063714;28;45447;-77
2023/04/20 01:17:38;;;;;;;;;12.00;12.00;;;;;17.53;41.18;101107.72;5081705;28;45397;-76
2023/04/20 01:20:13;;;;;;;;;10.00;10.00;;;;;17.63;41.56;101125.25;5081812;28;45253;-75
2023/04/20 01:22:53;;;;;;;;;12.00;12.00;;;;;17.40;41.28;101091.63;5081911;28;45305;-76
2023/04/20 01:25:19;;;;;;;;;13.00;13.00;;;;;17.38;41.71;101096.38;5063575;28;46399;-75
2023/04/20 01:27:44;;;;;;;;;10.00;10.00;;;;;17.36;42.11;101095.78;5063296;28;47955;-76
2023/04/20 01:30:11;;;;;;;;;12.00;11.00;;;;;17.28;41.31;101092.31;5059632;28;45375;-76
2023/04/20 01:32:39;;;;;;;;;10.00;10.00;;;;;17.29;41.43;101099.31;5059997;28;45334;-75
2023/04/20 01:35:06;;;;;;;;;12.67;12.00;;;;;17.29;41.86;101088.56;5043045;28;45830;-76
2023/04/20 01:37:35;;;;;;;;;11.67;11.67;;;;;17.28;41.70;101097.69;5042741;28;46566;-75
2023/04/20 01:40:00;;;;;;;;;10.00;10.00;;;;;17.10;41.84;101081.38;5043057;28;45277;-76
2023/04/20 01:42:26;;;;;;;;;11.67;11.67;;;;;16.89;41.93;101081.41;5061422;28;45325;-75
2023/04/20 01:44:51;;;;;;;;;9.00;9.00;;;;;16.81;42.44;101078.91;5043003;28;45517;-75
2023/04/20 01:47:17;;;;;;;;;13.67;11.00;;;;;16.84;42.27;101080.34;5072589;28;48138;-77
2023/04/20 01:49:43;;;;;;;;;11.00;9.00;;;;;16.84;42.47;101097.28;5066156;28;46135;-76
2023/04/20 01:52:08;;;;;;;;;10.00;10.00;;;;;16.78;42.89;101088.22;5077508;28;45355;-75
2023/04/20 01:54:34;;;;;;;;;9.33;8.33;;;;;16.89;42.46;101107.41;5063148;28;47398;-76
2023/04/20 01:57:01;;;;;;;;;13.33;11.33;;;;;16.72;43.10;101091.72;5062743;28;48223;-75
2023/04/20 01:59:26;;;;;;;;;13.33;11.00;;;;;16.73;42.42;101089.88;5081223;28;45369;-76
2023/04/20 02:01:52;;;;;;;;;9.00;9.00;;;;;16.83;42.69;101106.38;5062834;28;45320;-76
2023/04/20 02:04:17;;;;;;;;;12.67;11.33;;;;;16.75;43.16;101104.72;5062911;28;45599;-76
2023/04/20 02:06:43;;;;;;;;;11.00;9.33;;;;;16.81;42.63;101115.66;5079695;28;47417;-75
2023/04/20 02:09:08;;;;;;;;;14.00;10.00;;;;;16.61;42.71;101085.09;5081075;28;45406;-75
2023/04/20 02:11:34;;;;;;;;;11.00;9.00;;;;;16.57;42.65;101093.75;5062973;28;45433;-76
2023/04/20 02:14:02;;;;;;;;;12.00;10.67;;;;;16.59;42.80;101105.13;5062619;28;45365;-76
2023/04/20 02:16:30;;;;;;;;;8.67;8.67;;;;;16.55;42.99;101107.38;5062623;28;47405;-76
2023/04/20 02:18:56;;;;;;;;;9.00;9.00;;;;;16.42;42.97;101089.44;5062506;28;45633;-75
2023/04/20 02:21:21;;;;;;;;;11.33;10.67;;;;;16.44;43.18;101097.28;5062644;28;45432;-75
2023/04/20 02:23:47;;;;;;;;;13.00;10.67;;;;;16.37;43.16;101095.41;5080863;28;45407;-76
2023/04/20 02:26:15;;;;;;;;;9.00;9.00;;;;;16.33;43.14;101107.56;5079396;28;45708;-75
2023/04/20 02:28:41;;;;;;;;;10.33;10.33;;;;;16.30;43.50;101102.63;5065878;27;45346;-75
2023/04/20 02:31:06;;;;;;;;;11.00;9.33;;;;;16.31;43.13;101115.00;5100897;27;45330;-76
2023/04/20 02:33:32;;;;;;;;;10.00;10.00;;;;;16.32;43.22;101118.50;5099816;27;45542;-76
2023/04/20 02:36:00;;;;;;;;;10.33;9.33;;;;;16.32;43.26;101113.97;5082494;27;48064;-76
2023/04/20 02:38:26;;;;;;;;;9.00;7.67;;;;;16.19;43.00;101103.22;5082715;27;45313;-75
2023/04/20 02:40:51;;;;;;;;;10.67;8.33;;;;;16.21;43.21;101111.88;5101223;27;45440;-76
2023/04/20 02:43:16;;;;;;;;;12.33;11.00;;;;;16.07;43.29;101098.44;5101100;27;45291;-76
2023/04/20 02:45:42;;;;;;;;;11.67;10.33;;;;;16.17;43.12;101122.19;5099418;27;47279;-76
2023/04/20 02:48:07;;;;;;;;;10.00;9.67;;;;;16.01;43.36;101100.09;5100443;27;45361;-76
2023/04/20 02:50:34;;;;;;;;;9.33;9.33;;;;;15.98;43.14;101116.56;5082322;27;45354;-75
2023/04/20 02:53:03;;;;;;;;;8.00;8.00;;;;;15.93;43.34;101110.13;5082313;27;45390;-75
2023/04/20 02:55:30;;;;;;;;;7.33;7.33;;;;;15.94;43.87;101115.28;5082171;27;46896;-75
2023/04/20 02:57:58;;;;;;;;;9.33;8.00;;;;;15.92;43.67;101113.84;5082111;27;45284;-76
2023/04/20 03:00:24;;;;;;;;;10.00;10.00;;;;;15.85;43.54;101117.31;5082137;27;45347;-75
2023/04/20 03:02:50;;;;;;;;;9.67;9.00;;;;;15.83;43.30;101119.38;5100611;27;45323;-76
2023/04/20 03:05:16;;;;;;;;;8.00;8.00;;;;;15.87;43.66;101133.19;5081827;27;48248;-76
2023/04/20 03:07:42;;;;;;;;;8.00;7.00;;;;;15.74;43.67;101116.03;5100664;27;45136;-75
2023/04/20 03:10:10;;;;;;;;;9.33;9.33;;;;;15.69;43.95;101110.47;5082383;27;45181;-76
2023/04/20 03:12:35;;;;;;;;;9.67;9.00;;;;;15.84;43.86;101129.06;5082155;27;45469;-75
2023/04/20 03:15:05;;;;;;;;;9.00;9.00;;;;;15.66;44.35;101113.53;5081866;27;47998;-76
2023/04/20 03:17:33;;;;;;;;;12.00;9.33;;;;;15.63;44.30;101119.28;5081939;27;45382;-76
2023/04/20 03:20:01;;;;;;;;;9.67;8.67;;;;;15.52;44.24;101109.97;5082012;27;45349;-75
2023/04/20 03:22:26;;;;;;;;;8.00;7.00;;;;;15.45;44.80;101104.56;5100263;27;45395;-76
2023/04/20 03:24:51;;;;;;;;;7.00;7.00;;;;;15.59;44.38;101134.13;5100243;27;46173;-76
2023/04/20 03:27:17;;;;;;;;;8.33;8.33;;;;;15.43;44.47;101114.66;5082110;27;45268;-75
2023/04/20 03:29:42;;;;;;;;;10.00;9.00;;;;;15.58;44.40;101127.91;5088335;27;45338;-76
2023/04/20 03:32:07;;;;;;;;;8.67;8.33;;;;;15.48;44.43;101117.56;5078114;28;45911;-75
2023/04/20 03:34:33;;;;;;;;;7.00;7.00;;;;;15.47;44.22;101110.53;5061421;28;47814;-75
2023/04/20 03:37:01;;;;;;;;;9.00;7.67;;;;;15.36;44.42;101111.91;5061390;28;45293;-76
2023/04/20 03:39:27;;;;;;;;;9.00;9.00;;;;;15.38;44.34;101117.91;5077283;28;45281;-75
2023/04/20 03:41:52;;;;;;;;;6.00;5.33;;;;;15.39;44.67;101129.47;5061147;28;45379;-76
2023/04/20 03:44:20;;;;;;;;;7.67;6.67;;;;;15.41;44.82;101135.44;5079730;28;45280;-76
2023/04/20 03:46:46;;;;;;;;;10.67;9.00;;;;;15.27;44.81;101118.47;5079438;28;45292;-75
2023/04/20 03:49:11;;;;;;;;;8.00;7.67;;;;;15.32;44.86;101142.81;5079922;28;45570;-77
2023/04/20 03:51:36;;;;;;;;;9.00;9.00;;;;;15.14;44.92;101122.72;5061271;28;47364;-76
2023/04/20 03:54:02;;;;;;;;;8.00;8.00;;;;;15.19;45.18;101127.50;5061272;28;46074;-76
2023/04/20 03:56:32;;;;;;;;;7.67;7.00;;;;;15.09;45.06;101132.34;5079608;28;45406;-75
2023/04/20 03:59:00;;;;;;;;;7.00;6.00;;;;;15.12;44.91;101148.03;5061417;28;45334;-75
2023/04/20 04:01:26;;;;;;;;;7.33;7.33;;;;;15.12;45.07;101151.53;5080891;28;45173;-76
2023/04/20 04:03:51;;;;;;;;;6.00;4.00;;;;;14.99;44.79;101132.69;5083021;28;46121;-77
2023/04/20 04:06:16;;;;;;;;;8.67;7.67;;;;;14.92;44.74;101132.66;5082977;28;45366;-76
2023/04/20 04:08:42;;;;;;;;;8.67;8.00;;;;;15.06;45.38;101156.84;5083253;28;45357;-75
2023/04/20 04:11:07;;;;;;;;;8.67;7.67;;;;;14.97;45.25;101140.91;5082976;28;45314;-75
2023/04/20 04:13:33;;;;;;;;;8.67;8.00;;;;;14.93;45.52;101138.84;5064391;28;47201;-76
2023/04/20 04:15:58;;;;;;;;;9.00;9.00;;;;;14.87;45.23;101133.22;5082669;28;45354;-76
2023/04/20 04:18:24;;;;;;;;;9.00;9.00;;;;;14.87;45.50;101143.09;5064519;28;45382;-76
2023/04/20 04:20:50;;;;;;;;;7.33;7.33;;;;;14.98;45.18;101169.34;5082567;28;45596;-75
2023/04/20 04:23:15;;;;;;;;;9.00;8.33;;;;;14.93;44.90;101162.91;5076054;28;45331;-76
2023/04/20 04:25:41;;;;;;;;;22.33;20.33;;;;;14.80;45.21;101140.38;5061025;28;45357;-76
2023/04/20 04:28:06;;;;;;;;;23.33;21.33;;;;;14.79;45.23;101151.25;5062193;28;45402;-75
2023/04/20 04:30:32;;;;;;;;;22.67;20.33;;;;;14.86;45.28;101163.69;5062461;28;46487;-76
2023/04/20 04:32:58;;;;;;;;;11.33;11.00;;;;;14.93;44.91;101168.28;5064121;28;45777;-75
2023/04/20 04:35:25;;;;;;;;;71.50;54.25;;;;;14.92;45.32;101164.75;5082288;28;45438;-75
2023/04/20 04:37:51;;;;;;;;;66.00;48.25;;;;;14.76;45.80;101150.59;5082609;28;45354;-75
2023/04/20 04:40:17;;;;;;;;;74.00;56.25;;;;;14.76;45.25;101163.97;5082286;28;45387;-75
2023/04/20 04:42:44;;;;;;;;;73.50;56.00;;;;;14.85;44.74;101177.25;5082242;28;45484;-75
2023/04/20 04:45:09;;;;;;;;;37.50;33.75;;;;;14.83;44.52;101171.25;5064145;28;45362;-76
2023/04/20 04:47:35;;;;;;;;;27.00;23.00;;;;;14.77;44.98;101165.63;5059038;28;45346;-75
2023/04/20 04:50:02;;;;;;;;;34.67;31.00;;;;;14.73;44.57;101153.63;5043775;28;45330;-76
2023/04/20 04:52:28;;;;;;;;;31.33;28.33;;;;;14.83;44.97;101181.97;5043545;28;48311;-75
2023/04/20 04:54:53;;;;;;;;;72.75;54.25;;;;;14.90;44.42;101188.19;5061842;28;45167;-74
2023/04/20 04:57:18;;;;;;;;;69.25;53.25;;;;;14.76;44.32;101171.19;5062075;28;45376;-75
2023/04/20 04:59:44;;;;;;;;;41.00;33.00;;;;;14.74;44.96;101162.50;5061834;28;45276;-75
2023/04/20 05:02:09;;;;;;;;;41.75;36.50;;;;;14.92;44.58;101190.69;5060084;28;47760;-76
2023/04/20 05:04:35;;;;;;;;;51.50;40.75;;;;;14.62;45.14;101156.84;5061852;28;45254;-76
2023/04/20 05:07:00;;;;;;;;;62.25;49.25;;;;;14.86;44.77;101192.28;5061875;28;45335;-75
2023/04/20 05:09:32;;;;;;;;;45.75;34.00;;;;;14.85;44.70;101195.97;5060840;28;45222;-75
2023/04/20 05:12:02;;;;;;;;;87.25;74.75;;;;;14.83;45.02;101200.69;5060898;28;46083;-75
2023/04/20 05:14:30;;;;;;;;;74.50;55.50;;;;;14.83;44.71;101200.69;5061590;28;45455;-75
2023/04/20 05:16:58;;;;;;;;;74.00;57.25;;;;;14.81;44.62;101208.09;5061358;28;45348;-75
2023/04/20 05:19:23;;;;;;;;;85.50;73.25;;;;;14.71;44.80;101192.31;5061346;28;45245;-75
2023/04/20 05:21:48;;;;;;;;;159.00;126.67;;;;;14.88;44.84;101215.16;5052951;28;45543;-76
2023/04/20 05:24:14;;;;;;;;;71.50;55.50;;;;;14.91;44.87;101211.28;5052704;28;45359;-76
2023/04/20 05:26:39;;;;;;;;;13.33;12.00;;;;;14.71;44.81;101174.44;5041328;28;45282;-76
2023/04/20 05:29:05;;;;;;;;;12.00;10.00;;;;;14.87;44.85;101212.66;5054516;28;45535;-74
2023/04/20 05:31:32;;;;;;;;;8.33;8.00;;;;;14.77;44.33;101200.41;5081234;28;45256;-75
2023/04/20 05:34:00;;;;;;;;;11.33;9.00;;;;;14.75;44.40;101207.78;5063773;28;45374;-76
2023/04/20 05:36:26;;;;;;;;;10.67;7.67;;;;;14.73;44.69;101212.50;5059832;28;45413;-75
2023/04/20 05:38:51;;;;;;;;;9.00;7.67;;;;;14.73;44.87;101207.16;5061247;28;45304;-76
2023/04/20 05:41:16;;;;;;;;;8.33;8.33;;;;;14.66;44.44;101206.25;5061180;28;45358;-76
2023/04/20 05:43:41;;;;;;;;;9.00;9.00;;;;;14.63;44.40;101206.63;5061525;28;45245;-78
2023/04/20 05:46:07;;;;;;;;;10.33;10.00;;;;;14.60;44.48;101217.72;5060984;28;45221;-78
2023/04/20 05:48:32;;;;;;;;;15.00;13.67;;;;;14.52;45.12;101206.13;5061579;28;45234;-80
2023/04/20 05:50:58;;;;;;;;;38.67;35.00;;;;;14.56;45.38;101205.75;5061885;28;45232;-80
2023/04/20 05:53:23;;;;;;;;;76.25;56.25;;;;;14.62;45.36;101205.81;5062336;28;45166;-80
2023/04/20 05:55:48;;;;;;;;;19.33;17.33;;;;;14.64;44.98;101205.63;5061585;28;45303;-79
2023/04/20 05:58:14;;;;;;;;;9.67;9.67;;;;;14.63;44.74;101198.59;5062954;28;45284;-83
2023/04/20 06:00:39;;;;;;;;;9.67;9.00;;;;;14.62;44.70;101207.66;5060943;28;45362;-79
2023/04/20 06:03:05;;;;;;;;;14.67;12.00;;;;;14.62;44.64;101199.63;5062070;28;45339;-78
2023/04/20 06:05:30;;;;;;;;;11.67;9.33;;;;;14.56;44.65;101203.91;5074582;28;45319;-79
2023/04/20 06:07:55;;;;;;;;;23.00;22.67;;;;;14.50;44.83;101191.28;5080432;28;45538;-78
2023/04/20 06:10:21;;;;;;;;;50.25;41.25;;;;;14.63;45.29;101204.78;5061826;28;45347;-80
2023/04/20 06:12:46;;;;;;;;;26.33;19.67;;;;;14.63;45.00;101196.78;5060699;28;45328;-80
2023/04/20 06:15:12;;;;;;;;;42.33;33.33;;;;;14.68;45.07;101214.94;5060883;28;45344;-80
2023/04/20 06:17:39;;;;;;;;;20.67;17.67;;;;;14.55;44.81;101210.28;5060462;28;45498;-79
2023/04/20 06:20:06;;;;;;;;;27.67;23.67;;;;;14.61;44.72;101198.00;5060611;28;46241;-81
2023/04/20 06:22:32;;;;;;;;;41.00;34.75;;;;;14.74;44.37;101214.19;5060344;28;45284;-79
2023/04/20 06:24:59;;;;;;;;;56.75;43.50;;;;;14.69;44.49;101213.91;5059764;28;45230;-78
2023/04/20 06:27:24;;;;;;;;;24.33;24.00;;;;;14.70;44.70;101222.78;5060532;28;45453;-78
2023/04/20 06:29:50;;;;;;;;;28.33;25.00;;;;;14.49;44.63;101203.00;5086235;27;46213;-77
2023/04/20 06:32:16;;;;;;;;;68.75;53.00;;;;;14.72;44.88;101216.19;5078742;28;45235;-78
2023/04/20 06:34:42;;;;;;;;;44.67;35.67;;;;;14.72;44.59;101212.69;5062557;28;45310;-77
2023/04/20 06:37:07;;;;;;;;;85.25;72.75;;;;;14.76;45.25;101212.13;5080349;28;45546;-78
2023/04/20 06:39:34;;;;;;;;;47.75;38.00;;;;;14.70;45.05;101190.66;5080619;28;45307;-78
2023/04/20 06:41:59;;;;;;;;;46.25;36.00;;;;;14.85;44.67;101204.81;5080421;28;45369;-78
2023/04/20 06:44:25;;;;;;;;;48.00;37.00;;;;;14.97;45.24;101210.50;5079014;28;45329;-76
2023/04/20 06:46:50;;;;;;;;;69.50;52.75;;;;;14.95;44.54;101206.34;5080040;28;45262;-77
2023/04/20 06:49:15;;;;;;;;;16.33;14.00;;;;;14.98;44.44;101200.63;5080565;28;46098;-77
2023/04/20 06:51:41;;;;;;;;;26.67;20.67;;;;;14.93;44.56;101200.38;5080396;28;45399;-77
2023/04/20 06:54:07;;;;;;;;;47.50;38.75;;;;;15.01;44.54;101209.09;5080468;28;45288;-76
2023/04/20 06:56:32;;;;;;;;;17.00;15.67;;;;;14.93;44.62;101197.72;5074914;28;45442;-77
2023/04/20 06:58:57;;;;;;;;;13.33;12.00;;;;;15.07;44.59;101228.06;5078326;28;46737;-77
2023/04/20 07:01:23;;;;;;;;;85.67;82.33;;;;;15.13;44.73;101228.16;5078712;28;45516;-76
2023/04/20 07:03:49;;;;;;;;;35.00;32.33;;;;;15.13;44.78;101216.59;5079980;28;45324;-77
2023/04/20 07:06:15;;;;;;;;;17.00;15.33;;;;;15.13;44.56;101214.75;5079842;28;45335;-76
2023/04/20 07:08:41;;;;;;;;;28.67;24.67;;;;;15.23;44.31;101216.25;5080961;28;45543;-75
2023/04/20 07:11:06;;;;;;;;;28.67;26.33;;;;;15.24;44.21;101218.75;5079721;28;45361;-76
2023/04/20 07:13:31;;;;;;;;;11.33;11.33;;;;;15.15;44.38;101196.63;5080081;28;45360;-78
2023/04/20 07:16:00;;;;;;;;;20.00;18.33;;;;;15.17;44.09;101196.44;5062505;28;46287;-77
2023/04/20 07:18:25;;;;;;;;;48.75;38.75;;;;;15.25;44.12;101209.72;5080143;28;46438;-77
2023/04/20 07:20:51;;;;;;;;;50.00;41.00;;;;;15.18;44.86;101186.56;5079856;28;45397;-77
2023/04/20 07:23:16;;;;;;;;;17.67;16.00;;;;;15.29;44.43;101190.59;5082189;28;45337;-78
2023/04/20 07:25:42;;;;;;;;;16.67;15.67;;;;;15.26;44.39;101183.75;5084104;28;45314;-78
2023/04/20 07:28:07;;;;;;;;;61.75;49.25;;;;;15.44;44.30;101191.28;5079856;28;45263;-77
2023/04/20 07:30:32;;;;;;;;;53.25;41.00;;;;;15.45;44.73;101186.78;5098379;27;45349;-77
2023/04/20 07:32:58;;;;;;;;;15.00;12.33;;;;;15.48;44.55;101179.16;5100509;27;45434;-76
2023/04/20 07:35:23;;;;;;;;;44.33;35.33;;;;;15.65;44.23;101201.13;5100302;27;45320;-76
2023/04/20 07:37:48;;;;;;;;;62.75;49.50;;;;;15.74;44.60;101198.25;5100143;27;45421;-77
2023/04/20 07:40:15;;;;;;;;;18.00;17.00;;;;;15.82;44.16;101197.28;5100616;27;45333;-77
2023/04/20 07:42:41;;;;;;;;;21.33;20.00;;;;;15.77;44.09;101179.09;5100243;27;45339;-77
2023/04/20 07:45:07;;;;;;;;;27.33;25.33;;;;;15.85;44.11;101187.00;5100116;27;45331;-76
2023/04/20 07:47:33;;;;;;;;;23.00;19.67;;;;;15.93;44.17;101187.84;5084919;27;46368;-76
2023/04/20 07:49:59;;;;;;;;;18.33;16.00;;;;;15.96;43.54;101187.47;5080265;28;45393;-77
2023/04/20 07:52:25;;;;;;;;;19.33;17.67;;;;;16.02;43.95;101187.50;5079754;28;45329;-77
2023/04/20 07:54:52;;;;;;;;;30.50;27.25;;;;;15.98;43.67;101158.66;5061323;28;45404;-77
2023/04/20 07:57:19;;;;;;;;;27.00;25.00;;;;;16.23;43.90;101175.03;5079914;28;46105;-77
2023/04/20 07:59:45;;;;;;;;;19.00;16.33;;;;;16.18;43.65;101166.75;5082118;28;45289;-76
2023/04/20 08:02:10;;;;;;;;;19.00;17.00;;;;;16.31;43.15;101178.56;5084568;28;45361;-76
2023/04/20 08:04:36;;;;;;;;;18.33;15.67;;;;;16.24;43.10;101175.84;5080318;28;45648;-76
2023/04/20 08:07:02;;;;;;;;;17.33;17.00;;;;;16.37;42.99;101175.06;5079948;28;46050;-77
2023/04/20 08:09:30;;;;;;;;;20.33;17.67;;;;;16.34;42.94;101154.00;5079361;28;45317;-77
2023/04/20 08:11:56;;;;;;;;;21.67;17.67;;;;;16.53;43.02;101166.63;5042768;28;45300;-76
2023/04/20 08:14:22;;;;;;;;;18.00;16.00;;;;;16.48;42.98;101144.13;5041711;28;45491;-76
2023/04/20 08:16:47;;;;;;;;;17.00;16.33;;;;;16.59;42.15;101156.09;5040030;28;45325;-76
2023/04/20 08:19:12;;;;;;;;;15.00;15.00;;;;;16.69;42.24;101153.00;5041348;28;45212;-76
2023/04/20 08:21:39;;;;;;;;;19.00;18.00;;;;;16.78;42.07;101152.63;5040229;28;45265;-76
2023/04/20 08:24:06;;;;;;;;;18.00;17.33;;;;;16.57;41.93;101158.16;5039192;28;45451;-76
2023/04/20 08:26:32;;;;;;;;;19.67;19.67;;;;;16.69;42.05;101124.34;5039164;28;45450;-77
2023/04/20 08:29:01;;;;;;;;;14.33;13.33;;;;;16.97;40.39;101150.13;5051679;28;45315;-77
2023/04/20 08:31:27;;;;;;;;;20.00;18.00;;;;;16.97;40.44;101146.63;5083660;28;45236;-77
2023/04/20 08:33:52;;;;;;;;;17.33;16.33;;;;;16.92;41.89;101144.56;5067091;28;45452;-76
2023/04/20 08:36:18;;;;;;;;;13.33;13.00;;;;;17.00;41.31;101157.78;5080382;28;45271;-76
2023/04/20 08:38:44;;;;;;;;;20.00;18.67;;;;;17.03;41.19;101146.63;5080587;28;45419;-78
2023/04/20 08:41:13;;;;;;;;;18.33;18.33;;;;;17.18;40.38;101156.34;5062890;28;45373;-77
2023/04/20 08:43:39;;;;;;;;;14.67;14.33;;;;;17.28;40.80;101151.41;5079280;28;45434;-77
2023/04/20 08:46:05;;;;;;;;;23.33;23.33;;;;;17.33;40.56;101140.00;5079274;28;45325;-77
2023/04/20 08:48:35;;;;;;;;;15.33;15.33;;;;;17.45;41.22;101145.56;5101356;27;45362;-77
2023/04/20 08:51:02;;;;;;;;;18.67;17.33;;;;;17.50;39.76;101139.56;5107534;27;45256;-76
2023/04/20 08:53:31;;;;;;;;;19.00;18.67;;;;;17.51;39.92;101144.72;5107398;27;45319;-77
2023/04/20 08:55:58;;;;;;;;;20.33;19.67;;;;;17.46;39.41;101135.63;5107011;27;45243;-77
2023/04/20 08:58:24;;;;;;;;;20.00;19.00;;;;;17.52;39.68;101124.88;5105533;27;44844;-77
2023/04/20 09:00:50;;;;;;;;;15.33;13.67;;;;;17.59;40.13;101134.75;5104023;27;45252;-77
2023/04/20 09:03:15;;;;;;;;;21.33;18.67;;;;;17.67;39.59;101126.47;5105935;27;45181;-77
2023/04/20 09:05:43;;;;;;;;;14.33;13.00;;;;;17.70;38.90;101115.31;5087090;27;46989;-77
2023/04/20 09:08:09;;;;;;;;;24.33;21.00;;;;;17.65;39.43;101104.34;5104281;27;45315;-76
2023/04/20 09:10:40;;;;;;;;;24.33;22.00;;;;;17.86;39.38;101127.44;5102789;27;45350;-75
2023/04/20 09:13:06;;;;;;;;;24.00;24.00;;;;;17.95;39.36;101124.50;5084493;27;45517;-78
2023/04/20 09:15:31;;;;;;;;;20.00;20.00;;;;;18.03;39.06;101119.72;5103337;27;45402;-76
2023/04/20 09:17:57;;;;;;;;;20.00;18.33;;;;;18.04;38.48;101118.66;5104018;27;45397;-76
2023/04/20 09:20:34;;;;;;;;;16.00;16.00;;;;;18.11;38.61;101115.97;5105563;27;45256;-77
2023/04/20 09:23:20;;;;;;;;;15.67;15.33;;;;;18.17;38.00;101098.97;5103310;27;45264;-76
2023/04/20 09:25:49;;;;;;;;;16.33;16.00;;;;;18.15;38.25;101079.53;5103326;27;45497;-76
2023/04/20 09:28:16;;;;;;;;;22.00;19.00;;;;;18.29;38.15;101096.41;5098382;27;45311;-76
2023/04/20 09:30:44;;;;;;;;;17.00;15.33;;;;;18.32;37.17;101088.94;5087483;27;45357;-77
2023/04/20 09:33:13;;;;;;;;;14.33;13.00;;;;;18.40;37.41;101092.19;5081693;28;45475;-76
2023/04/20 09:35:40;;;;;;;;;13.00;13.00;;;;;18.48;37.16;101077.66;5081876;28;45285;-76
2023/04/20 09:38:10;;;;;;;;;23.33;19.33;;;;;18.57;37.32;101078.19;5081595;28;45378;-76
2023/04/20 09:40:36;;;;;;;;;46.00;35.67;;;;;18.73;37.58;101073.28;5081543;28;45253;-76
2023/04/20 09:43:23;;;;;;;;;15.67;13.33;;;;;18.89;36.69;101069.22;5081560;28;45813;-77
2023/04/20 09:45:49;;;;;;;;;15.00;14.00;;;;;19.00;35.92;101068.47;5081028;28;45512;-76
2023/04/20 09:48:18;;;;;;;;;12.00;12.00;;;;;19.12;36.80;101065.06;5081547;28;45415;-78
2023/04/20 09:50:44;;;;;;;;;9.33;8.67;;;;;19.17;36.53;101057.16;5081438;28;45414;-76
2023/04/20 09:53:10;;;;;;;;;14.00;12.33;;;;;19.28;36.35;101069.84;5081282;28;45342;-77
2023/04/20 09:55:37;;;;;;;;;12.00;11.67;;;;;19.30;35.99;101072.34;5081410;28;45343;-77
2023/04/20 09:58:03;;;;;;;;;20.33;20.33;;;;;19.42;36.85;101067.84;5081274;28;45224;-76
2023/04/20 10:00:29;;;;;;;;;39.67;35.00;;;;;19.48;36.43;101063.41;5081186;28;45335;-76
2023/04/20 10:02:56;;;;;;;;;17.00;15.67;;;;;19.61;36.64;101050.81;5062910;28;45867;-77
2023/04/20 10:05:35;;;;;;;;;16.33;16.00;;;;;19.56;35.96;101056.91;5081324;28;45462;-77
2023/04/20 10:08:01;;;;;;;;;14.00;12.00;;;;;19.62;36.31;101057.84;5080879;28;45493;-78
2023/04/20 10:10:26;;;;;;;;;14.00;14.00;;;;;19.59;36.12;101047.53;5081360;28;45312;-76
2023/04/20 10:12:54;;;;;;;;;14.00;14.00;;;;;19.74;35.53;101047.97;5081477;28;45513;-78
2023/04/20 10:15:20;;;;;;;;;17.00;16.67;;;;;19.75;36.32;101040.69;5079795;28;46022;-78
2023/04/20 10:17:46;;;;;;;;;16.67;16.00;;;;;19.86;36.29;101052.56;5061851;28;45386;-76
2023/04/20 10:20:26;;;;;;;;;14.67;13.00;;;;;19.98;36.04;101044.50;5080718;28;45316;-80
2023/04/20 10:22:52;;;;;;;;;15.33;14.33;;;;;20.04;35.66;101054.41;5081885;28;45497;-79
2023/04/20 10:25:21;;;;;;;;;7.00;7.00;;;;;19.93;34.88;101055.97;5060945;28;46778;-78
2023/04/20 10:27:58;;;;;;;;;17.00;16.00;;;;;19.85;35.18;101048.22;5080503;28;45571;-78
2023/04/20 10:30:25;;;;;;;;;15.33;13.67;;;;;19.67;34.97;101049.94;5062126;28;45272;-80
2023/04/20 10:33:11;;;;;;;;;13.33;12.00;;;;;19.65;35.51;101058.25;5055244;28;46992;-78
2023/04/20 10:35:40;;;;;;;;;16.00;15.00;;;;;19.70;35.04;101070.22;5066591;28;45383;-78
2023/04/20 10:38:06;;;;;;;;;15.00;14.33;;;;;19.52;34.44;101067.28;5075839;28;45437;-76
2023/04/20 10:40:31;;;;;;;;;14.00;13.33;;;;;19.19;34.25;101057.75;5080553;28;45291;-76
2023/04/20 10:42:56;;;;;;;;;16.00;16.00;;;;;18.96;34.91;101045.75;5063565;28;45534;-78
2023/04/20 10:45:33;;;;;;;;;16.33;14.33;;;;;19.00;34.98;101057.72;5061636;28;45422;-77
2023/04/20 10:48:06;;;;;;;;;17.33;17.00;;;;;19.03;35.31;101059.13;5060620;28;45503;-76
2023/04/20 10:50:31;;;;;;;;;17.00;16.33;;;;;18.97;35.31;101050.06;5060559;28;45288;-76
2023/04/20 10:52:56;;;;;;;;;17.33;17.33;;;;;18.93;35.19;101038.09;5060746;28;45264;-78
2023/04/20 10:55:24;;;;;;;;;20.33;18.67;;;;;18.97;34.98;101062.72;5060882;28;46490;-76
2023/04/20 10:57:50;;;;;;;;;16.67;16.00;;;;;18.88;35.15;101052.22;5060493;28;45340;-76
2023/04/20 11:00:20;;;;;;;;;13.67;13.00;;;;;18.64;35.48;101035.06;5062492;28;45331;-77
2023/04/20 11:02:50;;;;;;;;;13.00;13.00;;;;;18.61;35.68;101051.66;5060955;28;45431;-75
2023/04/20 11:05:20;;;;;;;;;18.00;17.67;;;;;18.53;35.58;101052.78;5061759;28;46128;-77
2023/04/20 11:07:50;;;;;;;;;14.67;14.67;;;;;18.50;35.93;101053.22;5062166;28;45400;-78
2023/04/20 11:10:16;;;;;;;;;17.00;17.00;;;;;18.48;36.11;101045.34;5064013;28;45369;-77